sensor_id;sensor_type;location;lat;lon;timestamp;P1;durP1;ratioP1;P2;durP2;ratioP2
15716;SDS011;7960;50.908;4.204;2023-02-13T00:00:03;60.13;;;30.23;;
15716;SDS011;7960;50.908;4.204;2023-02-13T00:02:32;54.30;;;29.47;;
15716;SDS011;7960;50.908;4.204;2023-02-13T00:04:59;57.23;;;28.60;;
15716;SDS011;7960;50.908;4.204;2023-02-13T00:07:25;54.23;;;28.90;;
15716;SDS011;7960;50.908;4.204;2023-02-13T00:09:52;66.97;;;30.07;;
15716;SDS011;7960;50.908;4.204;2023-02-13T00:12:21;60.40;;;30.10;;
15716;SDS011;7960;50.908;4.204;2023-02-13T00:14:47;55.63;;;30.27;;
15716;SDS011;7960;50.908;4.204;2023-02-13T00:17:14;56.53;;;29.43;;
15716;SDS011;7960;50.908;4.204;2023-02-13T00:19:41;63.83;;;30.27;;
15716;SDS011;7960;50.908;4.204;2023-02-13T00:22:08;54.70;;;28.83;;
15716;SDS011;7960;50.908;4.204;2023-02-13T00:24:42;53.77;;;29.33;;
15716;SDS011;7960;50.908;4.204;2023-02-13T00:27:09;56.57;;;28.83;;
15716;SDS011;7960;50.908;4.204;2023-02-13T00:29:37;57.40;;;30.67;;
15716;SDS011;7960;50.908;4.204;2023-02-13T00:32:04;57.20;;;30.43;;
15716;SDS011;7960;50.908;4.204;2023-02-13T00:34:31;56.33;;;30.17;;
15716;SDS011;7960;50.908;4.204;2023-02-13T00:36:58;58.17;;;30.17;;
15716;SDS011;7960;50.908;4.204;2023-02-13T00:39:24;63.60;;;30.57;;
15716;SDS011;7960;50.908;4.204;2023-02-13T00:41:51;60.07;;;29.40;;
15716;SDS011;7960;50.908;4.204;2023-02-13T00:44:18;58.60;;;29.93;;
15716;SDS011;7960;50.908;4.204;2023-02-13T00:46:46;56.93;;;28.63;;
15716;SDS011;7960;50.908;4.204;2023-02-13T00:49:13;60.30;;;30.67;;
15716;SDS011;7960;50.908;4.204;2023-02-13T00:51:40;54.83;;;29.73;;
15716;SDS011;7960;50.908;4.204;2023-02-13T00:54:06;61.93;;;29.93;;
15716;SDS011;7960;50.908;4.204;2023-02-13T00:56:33;58.53;;;29.97;;
15716;SDS011;7960;50.908;4.204;2023-02-13T00:59:00;60.93;;;30.93;;
15716;SDS011;7960;50.908;4.204;2023-02-13T01:01:27;65.83;;;31.77;;
15716;SDS011;7960;50.908;4.204;2023-02-13T01:03:55;60.87;;;29.67;;
15716;SDS011;7960;50.908;4.204;2023-02-13T01:06:22;73.50;;;31.77;;
15716;SDS011;7960;50.908;4.204;2023-02-13T01:08:49;61.20;;;31.33;;
15716;SDS011;7960;50.908;4.204;2023-02-13T01:11:16;60.10;;;30.27;;
15716;SDS011;7960;50.908;4.204;2023-02-13T01:13:43;61.53;;;31.40;;
15716;SDS011;7960;50.908;4.204;2023-02-13T01:16:10;64.00;;;30.37;;
15716;SDS011;7960;50.908;4.204;2023-02-13T01:18:37;63.90;;;30.80;;
15716;SDS011;7960;50.908;4.204;2023-02-13T01:21:06;57.90;;;29.80;;
15716;SDS011;7960;50.908;4.204;2023-02-13T01:23:39;64.27;;;30.73;;
15716;SDS011;7960;50.908;4.204;2023-02-13T01:26:07;65.73;;;32.90;;
15716;SDS011;7960;50.908;4.204;2023-02-13T01:28:38;58.23;;;29.90;;
15716;SDS011;7960;50.908;4.204;2023-02-13T01:31:05;60.27;;;31.67;;
15716;SDS011;7960;50.908;4.204;2023-02-13T01:33:32;59.90;;;30.90;;
15716;SDS011;7960;50.908;4.204;2023-02-13T01:36:05;64.47;;;31.03;;
15716;SDS011;7960;50.908;4.204;2023-02-13T01:38:33;63.57;;;31.43;;
15716;SDS011;7960;50.908;4.204;2023-02-13T01:41:00;65.17;;;32.23;;
15716;SDS011;7960;50.908;4.204;2023-02-13T01:43:42;64.57;;;31.20;;
15716;SDS011;7960;50.908;4.204;2023-02-13T01:46:14;60.80;;;30.07;;
15716;SDS011;7960;50.908;4.204;2023-02-13T01:48:43;62.43;;;30.70;;
15716;SDS011;7960;50.908;4.204;2023-02-13T01:51:13;67.80;;;33.63;;
15716;SDS011;7960;50.908;4.204;2023-02-13T01:53:44;68.23;;;32.40;;
15716;SDS011;7960;50.908;4.204;2023-02-13T01:56:14;63.40;;;32.53;;
15716;SDS011;7960;50.908;4.204;2023-02-13T01:58:45;65.57;;;31.37;;
15716;SDS011;7960;50.908;4.204;2023-02-13T02:01:14;65.53;;;33.37;;
15716;SDS011;7960;50.908;4.204;2023-02-13T02:03:43;64.97;;;32.13;;
15716;SDS011;7960;50.908;4.204;2023-02-13T02:06:16;64.67;;;32.20;;
15716;SDS011;7960;50.908;4.204;2023-02-13T02:08:47;63.63;;;31.87;;
15716;SDS011;7960;50.908;4.204;2023-02-13T02:11:16;62.47;;;31.57;;
15716;SDS011;7960;50.908;4.204;2023-02-13T02:13:49;66.13;;;30.90;;
15716;SDS011;7960;50.908;4.204;2023-02-13T02:16:16;67.13;;;31.00;;
15716;SDS011;7960;50.908;4.204;2023-02-13T02:18:43;63.83;;;32.10;;
15716;SDS011;7960;50.908;4.204;2023-02-13T02:24:28;61.97;;;31.20;;
15716;SDS011;7960;50.908;4.204;2023-02-13T02:27:17;62.57;;;31.57;;
15716;SDS011;7960;50.908;4.204;2023-02-13T02:30:25;64.50;;;32.37;;
15716;SDS011;7960;50.908;4.204;2023-02-13T02:33:22;64.57;;;32.00;;
15716;SDS011;7960;50.908;4.204;2023-02-13T02:35:57;68.07;;;32.27;;
15716;SDS011;7960;50.908;4.204;2023-02-13T02:38:39;64.43;;;32.27;;
15716;SDS011;7960;50.908;4.204;2023-02-13T02:41:14;68.43;;;33.10;;
15716;SDS011;7960;50.908;4.204;2023-02-13T02:44:06;61.50;;;30.47;;
15716;SDS011;7960;50.908;4.204;2023-02-13T02:46:46;69.47;;;33.23;;
15716;SDS011;7960;50.908;4.204;2023-02-13T02:49:43;64.20;;;33.13;;
15716;SDS011;7960;50.908;4.204;2023-02-13T02:52:27;70.47;;;32.40;;
15716;SDS011;7960;50.908;4.204;2023-02-13T02:55:01;66.97;;;31.70;;
15716;SDS011;7960;50.908;4.204;2023-02-13T02:57:37;61.70;;;32.17;;
15716;SDS011;7960;50.908;4.204;2023-02-13T03:00:26;65.43;;;32.27;;
15716;SDS011;7960;50.908;4.204;2023-02-13T03:03:16;61.30;;;31.83;;
15716;SDS011;7960;50.908;4.204;2023-02-13T03:06:06;65.10;;;33.67;;
15716;SDS011;7960;50.908;4.204;2023-02-13T03:08:38;61.83;;;31.10;;
15716;SDS011;7960;50.908;4.204;2023-02-13T03:11:26;65.70;;;32.10;;
15716;SDS011;7960;50.908;4.204;2023-02-13T03:14:11;55.17;;;29.97;;
15716;SDS011;7960;50.908;4.204;2023-02-13T03:16:41;55.43;;;29.90;;
15716;SDS011;7960;50.908;4.204;2023-02-13T03:19:27;59.47;;;31.50;;
15716;SDS011;7960;50.908;4.204;2023-02-13T03:22:23;57.90;;;29.43;;
15716;SDS011;7960;50.908;4.204;2023-02-13T03:24:58;64.13;;;28.40;;
15716;SDS011;7960;50.908;4.204;2023-02-13T03:27:34;63.17;;;28.70;;
15716;SDS011;7960;50.908;4.204;2023-02-13T03:30:27;60.43;;;30.60;;
15716;SDS011;7960;50.908;4.204;2023-02-13T03:33:05;62.87;;;31.23;;
15716;SDS011;7960;50.908;4.204;2023-02-13T03:35:48;66.70;;;31.97;;
15716;SDS011;7960;50.908;4.204;2023-02-13T03:38:43;55.97;;;29.67;;
15716;SDS011;7960;50.908;4.204;2023-02-13T03:41:17;62.47;;;30.10;;
15716;SDS011;7960;50.908;4.204;2023-02-13T03:43:51;61.27;;;31.13;;
15716;SDS011;7960;50.908;4.204;2023-02-13T03:46:27;66.27;;;31.10;;
15716;SDS011;7960;50.908;4.204;2023-02-13T03:48:58;64.37;;;29.43;;
15716;SDS011;7960;50.908;4.204;2023-02-13T03:51:48;67.00;;;30.03;;
15716;SDS011;7960;50.908;4.204;2023-02-13T03:54:20;63.47;;;30.83;;
15716;SDS011;7960;50.908;4.204;2023-02-13T03:57:08;80.80;;;30.20;;
15716;SDS011;7960;50.908;4.204;2023-02-13T03:59:56;65.60;;;29.50;;
15716;SDS011;7960;50.908;4.204;2023-02-13T04:02:27;60.40;;;28.50;;
15716;SDS011;7960;50.908;4.204;2023-02-13T04:05:01;59.20;;;27.57;;
15716;SDS011;7960;50.908;4.204;2023-02-13T04:07:33;54.63;;;28.40;;
15716;SDS011;7960;50.908;4.204;2023-02-13T04:10:02;52.13;;;26.43;;
15716;SDS011;7960;50.908;4.204;2023-02-13T04:12:35;57.47;;;29.43;;
15716;SDS011;7960;50.908;4.204;2023-02-13T04:15:08;65.63;;;30.33;;
15716;SDS011;7960;50.908;4.204;2023-02-13T04:17:40;57.73;;;28.63;;
15716;SDS011;7960;50.908;4.204;2023-02-13T04:20:11;65.57;;;31.60;;
15716;SDS011;7960;50.908;4.204;2023-02-13T04:22:42;57.53;;;29.73;;
15716;SDS011;7960;50.908;4.204;2023-02-13T04:27:43;60.17;;;28.87;;
15716;SDS011;7960;50.908;4.204;2023-02-13T04:30:10;63.83;;;30.87;;
15716;SDS011;7960;50.908;4.204;2023-02-13T04:32:38;62.60;;;30.67;;
15716;SDS011;7960;50.908;4.204;2023-02-13T04:35:05;61.27;;;29.77;;
15716;SDS011;7960;50.908;4.204;2023-02-13T04:37:33;61.20;;;29.10;;
15716;SDS011;7960;50.908;4.204;2023-02-13T04:40:00;57.80;;;29.90;;
15716;SDS011;7960;50.908;4.204;2023-02-13T04:42:28;62.73;;;28.77;;
15716;SDS011;7960;50.908;4.204;2023-02-13T04:44:55;57.47;;;29.20;;
15716;SDS011;7960;50.908;4.204;2023-02-13T04:47:22;55.60;;;28.20;;
15716;SDS011;7960;50.908;4.204;2023-02-13T04:49:49;56.00;;;28.03;;
15716;SDS011;7960;50.908;4.204;2023-02-13T04:52:15;54.13;;;27.23;;
15716;SDS011;7960;50.908;4.204;2023-02-13T04:54:42;54.50;;;26.70;;
15716;SDS011;7960;50.908;4.204;2023-02-13T04:57:09;50.77;;;26.10;;
15716;SDS011;7960;50.908;4.204;2023-02-13T04:59:37;51.13;;;25.17;;
15716;SDS011;7960;50.908;4.204;2023-02-13T05:02:04;57.63;;;28.27;;
15716;SDS011;7960;50.908;4.204;2023-02-13T05:04:31;54.60;;;26.37;;
15716;SDS011;7960;50.908;4.204;2023-02-13T05:06:58;52.17;;;25.27;;
15716;SDS011;7960;50.908;4.204;2023-02-13T05:09:25;54.57;;;26.17;;
15716;SDS011;7960;50.908;4.204;2023-02-13T05:11:52;55.33;;;26.97;;
15716;SDS011;7960;50.908;4.204;2023-02-13T05:14:19;47.17;;;24.50;;
15716;SDS011;7960;50.908;4.204;2023-02-13T05:16:48;51.93;;;26.00;;
15716;SDS011;7960;50.908;4.204;2023-02-13T05:19:15;53.33;;;25.07;;
15716;SDS011;7960;50.908;4.204;2023-02-13T05:21:42;51.77;;;23.97;;
15716;SDS011;7960;50.908;4.204;2023-02-13T05:24:40;49.43;;;24.30;;
15716;SDS011;7960;50.908;4.204;2023-02-13T05:27:07;50.43;;;24.50;;
15716;SDS011;7960;50.908;4.204;2023-02-13T05:29:34;52.00;;;23.97;;
15716;SDS011;7960;50.908;4.204;2023-02-13T05:32:02;49.53;;;23.40;;
15716;SDS011;7960;50.908;4.204;2023-02-13T05:34:29;45.83;;;24.10;;
15716;SDS011;7960;50.908;4.204;2023-02-13T05:36:56;46.47;;;22.07;;
15716;SDS011;7960;50.908;4.204;2023-02-13T05:39:23;48.27;;;23.70;;
15716;SDS011;7960;50.908;4.204;2023-02-13T05:41:49;45.70;;;22.27;;
15716;SDS011;7960;50.908;4.204;2023-02-13T05:44:16;43.23;;;22.40;;
15716;SDS011;7960;50.908;4.204;2023-02-13T05:46:43;41.80;;;22.37;;
15716;SDS011;7960;50.908;4.204;2023-02-13T05:49:13;43.13;;;21.50;;
15716;SDS011;7960;50.908;4.204;2023-02-13T05:51:40;44.87;;;22.30;;
15716;SDS011;7960;50.908;4.204;2023-02-13T05:54:07;42.57;;;21.27;;
15716;SDS011;7960;50.908;4.204;2023-02-13T05:56:34;40.90;;;22.53;;
15716;SDS011;7960;50.908;4.204;2023-02-13T05:59:02;45.50;;;21.87;;
15716;SDS011;7960;50.908;4.204;2023-02-13T06:01:29;41.17;;;21.73;;
15716;SDS011;7960;50.908;4.204;2023-02-13T06:03:56;36.17;;;19.93;;
15716;SDS011;7960;50.908;4.204;2023-02-13T06:06:24;41.23;;;20.50;;
15716;SDS011;7960;50.908;4.204;2023-02-13T06:08:51;41.93;;;20.80;;
15716;SDS011;7960;50.908;4.204;2023-02-13T06:11:18;40.27;;;19.83;;
15716;SDS011;7960;50.908;4.204;2023-02-13T06:13:45;38.70;;;20.10;;
15716;SDS011;7960;50.908;4.204;2023-02-13T06:16:12;41.17;;;20.57;;
15716;SDS011;7960;50.908;4.204;2023-02-13T06:18:39;42.07;;;19.23;;
15716;SDS011;7960;50.908;4.204;2023-02-13T06:21:06;39.53;;;18.93;;
15716;SDS011;7960;50.908;4.204;2023-02-13T06:23:35;36.50;;;18.10;;
15716;SDS011;7960;50.908;4.204;2023-02-13T06:26:02;38.90;;;20.20;;
15716;SDS011;7960;50.908;4.204;2023-02-13T06:28:29;39.10;;;19.37;;
15716;SDS011;7960;50.908;4.204;2023-02-13T06:30:57;38.20;;;18.07;;
15716;SDS011;7960;50.908;4.204;2023-02-13T06:33:23;35.90;;;19.23;;
15716;SDS011;7960;50.908;4.204;2023-02-13T06:35:50;39.53;;;18.93;;
15716;SDS011;7960;50.908;4.204;2023-02-13T06:38:18;36.77;;;17.67;;
15716;SDS011;7960;50.908;4.204;2023-02-13T06:40:47;31.43;;;17.00;;
15716;SDS011;7960;50.908;4.204;2023-02-13T06:43:14;32.83;;;17.10;;
15716;SDS011;7960;50.908;4.204;2023-02-13T06:45:42;33.90;;;17.93;;
15716;SDS011;7960;50.908;4.204;2023-02-13T06:48:12;32.17;;;17.67;;
15716;SDS011;7960;50.908;4.204;2023-02-13T06:50:39;37.67;;;18.10;;
15716;SDS011;7960;50.908;4.204;2023-02-13T06:53:06;34.23;;;18.10;;
15716;SDS011;7960;50.908;4.204;2023-02-13T06:55:33;31.87;;;16.77;;
15716;SDS011;7960;50.908;4.204;2023-02-13T06:58:02;28.27;;;16.10;;
15716;SDS011;7960;50.908;4.204;2023-02-13T07:00:29;31.83;;;16.93;;
15716;SDS011;7960;50.908;4.204;2023-02-13T07:02:59;32.13;;;16.17;;
15716;SDS011;7960;50.908;4.204;2023-02-13T07:05:28;30.17;;;17.27;;
15716;SDS011;7960;50.908;4.204;2023-02-13T07:07:55;31.03;;;16.33;;
15716;SDS011;7960;50.908;4.204;2023-02-13T07:10:23;28.23;;;15.47;;
15716;SDS011;7960;50.908;4.204;2023-02-13T07:12:49;30.33;;;16.13;;
15716;SDS011;7960;50.908;4.204;2023-02-13T07:15:18;31.30;;;17.03;;
15716;SDS011;7960;50.908;4.204;2023-02-13T07:17:44;29.20;;;17.00;;
15716;SDS011;7960;50.908;4.204;2023-02-13T07:20:11;28.83;;;15.70;;
15716;SDS011;7960;50.908;4.204;2023-02-13T07:22:38;33.10;;;17.33;;
15716;SDS011;7960;50.908;4.204;2023-02-13T07:25:06;29.70;;;16.47;;
15716;SDS011;7960;50.908;4.204;2023-02-13T07:27:33;33.10;;;16.63;;
15716;SDS011;7960;50.908;4.204;2023-02-13T07:29:59;32.13;;;16.50;;
15716;SDS011;7960;50.908;4.204;2023-02-13T07:32:28;31.47;;;17.67;;
15716;SDS011;7960;50.908;4.204;2023-02-13T07:34:54;29.63;;;15.63;;
15716;SDS011;7960;50.908;4.204;2023-02-13T07:37:21;27.50;;;15.23;;
15716;SDS011;7960;50.908;4.204;2023-02-13T07:39:48;30.67;;;15.43;;
15716;SDS011;7960;50.908;4.204;2023-02-13T07:42:15;30.83;;;15.90;;
15716;SDS011;7960;50.908;4.204;2023-02-13T07:44:42;27.47;;;15.60;;
15716;SDS011;7960;50.908;4.204;2023-02-13T07:47:08;29.30;;;15.33;;
15716;SDS011;7960;50.908;4.204;2023-02-13T07:49:37;31.60;;;15.83;;
15716;SDS011;7960;50.908;4.204;2023-02-13T07:52:04;30.47;;;15.50;;
15716;SDS011;7960;50.908;4.204;2023-02-13T07:54:30;29.33;;;15.47;;
15716;SDS011;7960;50.908;4.204;2023-02-13T07:56:58;29.13;;;15.67;;
15716;SDS011;7960;50.908;4.204;2023-02-13T07:59:24;27.00;;;15.87;;
15716;SDS011;7960;50.908;4.204;2023-02-13T08:01:51;30.30;;;16.67;;
15716;SDS011;7960;50.908;4.204;2023-02-13T08:04:18;30.93;;;16.23;;
15716;SDS011;7960;50.908;4.204;2023-02-13T08:06:46;84.00;;;40.13;;
15716;SDS011;7960;50.908;4.204;2023-02-13T08:09:16;33.30;;;17.77;;
15716;SDS011;7960;50.908;4.204;2023-02-13T08:12:02;29.83;;;16.43;;
15716;SDS011;7960;50.908;4.204;2023-02-13T08:14:30;29.63;;;16.00;;
15716;SDS011;7960;50.908;4.204;2023-02-13T08:16:57;29.00;;;15.60;;
15716;SDS011;7960;50.908;4.204;2023-02-13T08:19:25;25.87;;;15.13;;
15716;SDS011;7960;50.908;4.204;2023-02-13T08:21:53;28.03;;;15.70;;
15716;SDS011;7960;50.908;4.204;2023-02-13T08:24:20;30.40;;;15.83;;
15716;SDS011;7960;50.908;4.204;2023-02-13T08:26:47;23.93;;;14.90;;
15716;SDS011;7960;50.908;4.204;2023-02-13T08:29:13;28.03;;;15.10;;
15716;SDS011;7960;50.908;4.204;2023-02-13T08:31:40;26.87;;;14.40;;
15716;SDS011;7960;50.908;4.204;2023-02-13T08:34:07;24.87;;;14.93;;
15716;SDS011;7960;50.908;4.204;2023-02-13T08:36:34;25.70;;;15.30;;
15716;SDS011;7960;50.908;4.204;2023-02-13T08:39:03;28.60;;;15.63;;
15716;SDS011;7960;50.908;4.204;2023-02-13T08:41:29;25.63;;;14.87;;
15716;SDS011;7960;50.908;4.204;2023-02-13T08:43:56;27.80;;;15.63;;
15716;SDS011;7960;50.908;4.204;2023-02-13T08:46:23;25.83;;;15.27;;
15716;SDS011;7960;50.908;4.204;2023-02-13T08:48:50;28.70;;;15.90;;
15716;SDS011;7960;50.908;4.204;2023-02-13T08:51:17;26.37;;;14.87;;
15716;SDS011;7960;50.908;4.204;2023-02-13T08:53:43;26.63;;;14.77;;
15716;SDS011;7960;50.908;4.204;2023-02-13T08:56:12;26.77;;;15.57;;
15716;SDS011;7960;50.908;4.204;2023-02-13T08:58:38;26.20;;;14.97;;
15716;SDS011;7960;50.908;4.204;2023-02-13T09:01:06;27.53;;;15.47;;
15716;SDS011;7960;50.908;4.204;2023-02-13T09:03:33;26.33;;;13.87;;
15716;SDS011;7960;50.908;4.204;2023-02-13T09:06:00;26.00;;;15.00;;
15716;SDS011;7960;50.908;4.204;2023-02-13T09:08:27;25.53;;;14.70;;
15716;SDS011;7960;50.908;4.204;2023-02-13T09:10:55;26.13;;;15.87;;
15716;SDS011;7960;50.908;4.204;2023-02-13T09:13:24;29.80;;;15.37;;
15716;SDS011;7960;50.908;4.204;2023-02-13T09:15:51;24.50;;;14.53;;
15716;SDS011;7960;50.908;4.204;2023-02-13T09:18:18;32.87;;;16.53;;
15716;SDS011;7960;50.908;4.204;2023-02-13T09:20:44;31.50;;;15.47;;
15716;SDS011;7960;50.908;4.204;2023-02-13T09:23:11;28.37;;;15.13;;
15716;SDS011;7960;50.908;4.204;2023-02-13T09:25:39;25.27;;;14.67;;
15716;SDS011;7960;50.908;4.204;2023-02-13T09:28:05;27.60;;;14.53;;
15716;SDS011;7960;50.908;4.204;2023-02-13T09:30:34;24.13;;;14.07;;
15716;SDS011;7960;50.908;4.204;2023-02-13T09:33:00;25.90;;;14.93;;
15716;SDS011;7960;50.908;4.204;2023-02-13T09:35:27;27.33;;;15.03;;
15716;SDS011;7960;50.908;4.204;2023-02-13T09:37:54;24.37;;;14.77;;
15716;SDS011;7960;50.908;4.204;2023-02-13T09:40:23;23.40;;;13.57;;
15716;SDS011;7960;50.908;4.204;2023-02-13T09:42:55;28.10;;;14.20;;
15716;SDS011;7960;50.908;4.204;2023-02-13T09:45:30;25.67;;;14.33;;
15716;SDS011;7960;50.908;4.204;2023-02-13T09:47:59;28.20;;;15.30;;
15716;SDS011;7960;50.908;4.204;2023-02-13T09:50:27;36.67;;;15.50;;
15716;SDS011;7960;50.908;4.204;2023-02-13T09:52:57;23.23;;;13.97;;
15716;SDS011;7960;50.908;4.204;2023-02-13T09:55:26;27.20;;;14.80;;
15716;SDS011;7960;50.908;4.204;2023-02-13T09:58:02;41.47;;;15.60;;
15716;SDS011;7960;50.908;4.204;2023-02-13T10:00:36;25.10;;;12.23;;
15716;SDS011;7960;50.908;4.204;2023-02-13T10:03:17;70.13;;;17.07;;
15716;SDS011;7960;50.908;4.204;2023-02-13T10:05:59;47.17;;;14.97;;
15716;SDS011;7960;50.908;4.204;2023-02-13T10:08:43;25.60;;;13.73;;
15716;SDS011;7960;50.908;4.204;2023-02-13T10:11:22;20.10;;;11.93;;
15716;SDS011;7960;50.908;4.204;2023-02-13T10:14:10;30.30;;;13.43;;
15716;SDS011;7960;50.908;4.204;2023-02-13T10:16:42;33.73;;;13.80;;
15716;SDS011;7960;50.908;4.204;2023-02-13T10:19:18;22.30;;;12.20;;
15716;SDS011;7960;50.908;4.204;2023-02-13T10:21:55;32.17;;;13.93;;
15716;SDS011;7960;50.908;4.204;2023-02-13T10:24:28;27.20;;;12.27;;
15716;SDS011;7960;50.908;4.204;2023-02-13T10:26:59;24.53;;;12.80;;
15716;SDS011;7960;50.908;4.204;2023-02-13T10:29:34;27.43;;;13.10;;
15716;SDS011;7960;50.908;4.204;2023-02-13T10:32:24;24.00;;;12.50;;
15716;SDS011;7960;50.908;4.204;2023-02-13T10:34:57;34.53;;;13.83;;
15716;SDS011;7960;50.908;4.204;2023-02-13T10:37:27;17.10;;;11.03;;
15716;SDS011;7960;50.908;4.204;2023-02-13T10:39:54;25.97;;;12.67;;
15716;SDS011;7960;50.908;4.204;2023-02-13T10:42:22;24.23;;;14.07;;
15716;SDS011;7960;50.908;4.204;2023-02-13T10:45:02;28.00;;;13.20;;
15716;SDS011;7960;50.908;4.204;2023-02-13T10:47:49;26.90;;;13.13;;
15716;SDS011;7960;50.908;4.204;2023-02-13T10:50:28;19.67;;;11.30;;
15716;SDS011;7960;50.908;4.204;2023-02-13T10:53:05;19.57;;;12.20;;
15716;SDS011;7960;50.908;4.204;2023-02-13T10:55:59;36.97;;;14.17;;
15716;SDS011;7960;50.908;4.204;2023-02-13T10:58:42;31.73;;;13.50;;
15716;SDS011;7960;50.908;4.204;2023-02-13T11:01:18;19.50;;;12.23;;
15716;SDS011;7960;50.908;4.204;2023-02-13T11:03:59;21.60;;;13.37;;
15716;SDS011;7960;50.908;4.204;2023-02-13T11:06:31;23.13;;;13.53;;
15716;SDS011;7960;50.908;4.204;2023-02-13T11:09:00;20.57;;;12.80;;
15716;SDS011;7960;50.908;4.204;2023-02-13T11:11:27;34.87;;;14.23;;
15716;SDS011;7960;50.908;4.204;2023-02-13T11:16:43;19.17;;;12.17;;
15716;SDS011;7960;50.908;4.204;2023-02-13T11:19:19;31.23;;;14.77;;
15716;SDS011;7960;50.908;4.204;2023-02-13T11:21:54;22.20;;;13.77;;
15716;SDS011;7960;50.908;4.204;2023-02-13T11:24:24;22.20;;;13.17;;
15716;SDS011;7960;50.908;4.204;2023-02-13T11:26:55;21.43;;;13.27;;
15716;SDS011;7960;50.908;4.204;2023-02-13T11:29:25;21.57;;;13.40;;
15716;SDS011;7960;50.908;4.204;2023-02-13T11:32:05;26.13;;;14.27;;
15716;SDS011;7960;50.908;4.204;2023-02-13T11:34:42;22.43;;;13.97;;
15716;SDS011;7960;50.908;4.204;2023-02-13T11:37:18;28.07;;;13.50;;
15716;SDS011;7960;50.908;4.204;2023-02-13T11:39:50;44.13;;;16.17;;
15716;SDS011;7960;50.908;4.204;2023-02-13T11:42:20;25.27;;;13.33;;
15716;SDS011;7960;50.908;4.204;2023-02-13T11:44:51;19.30;;;13.17;;
15716;SDS011;7960;50.908;4.204;2023-02-13T11:47:36;20.23;;;12.93;;
15716;SDS011;7960;50.908;4.204;2023-02-13T11:50:05;19.73;;;12.93;;
15716;SDS011;7960;50.908;4.204;2023-02-13T11:52:51;25.13;;;13.43;;
15716;SDS011;7960;50.908;4.204;2023-02-13T11:55:27;22.40;;;14.23;;
15716;SDS011;7960;50.908;4.204;2023-02-13T11:57:57;22.17;;;13.87;;
15716;SDS011;7960;50.908;4.204;2023-02-13T12:00:26;24.37;;;14.27;;
15716;SDS011;7960;50.908;4.204;2023-02-13T12:02:57;23.50;;;14.80;;
15716;SDS011;7960;50.908;4.204;2023-02-13T12:05:25;21.70;;;13.87;;
15716;SDS011;7960;50.908;4.204;2023-02-13T12:07:54;60.87;;;17.63;;
15716;SDS011;7960;50.908;4.204;2023-02-13T12:10:25;38.63;;;17.00;;
15716;SDS011;7960;50.908;4.204;2023-02-13T12:12:54;24.17;;;14.43;;
15716;SDS011;7960;50.908;4.204;2023-02-13T12:15:23;19.80;;;14.37;;
15716;SDS011;7960;50.908;4.204;2023-02-13T12:17:58;21.87;;;14.03;;
15716;SDS011;7960;50.908;4.204;2023-02-13T12:20:32;24.53;;;14.37;;
15716;SDS011;7960;50.908;4.204;2023-02-13T12:23:20;35.77;;;16.57;;
15716;SDS011;7960;50.908;4.204;2023-02-13T12:26:01;33.63;;;15.13;;
15716;SDS011;7960;50.908;4.204;2023-02-13T12:28:41;25.63;;;14.80;;
15716;SDS011;7960;50.908;4.204;2023-02-13T12:31:27;28.57;;;15.07;;
15716;SDS011;7960;50.908;4.204;2023-02-13T12:34:15;23.33;;;14.60;;
15716;SDS011;7960;50.908;4.204;2023-02-13T12:37:01;24.67;;;15.10;;
15716;SDS011;7960;50.908;4.204;2023-02-13T12:39:41;22.60;;;14.80;;
15716;SDS011;7960;50.908;4.204;2023-02-13T12:42:22;23.33;;;15.17;;
15716;SDS011;7960;50.908;4.204;2023-02-13T12:45:12;24.63;;;15.20;;
15716;SDS011;7960;50.908;4.204;2023-02-13T12:47:50;22.03;;;14.13;;
15716;SDS011;7960;50.908;4.204;2023-02-13T12:50:37;22.43;;;14.37;;
15716;SDS011;7960;50.908;4.204;2023-02-13T12:53:21;22.37;;;14.90;;
15716;SDS011;7960;50.908;4.204;2023-02-13T12:59:28;22.23;;;15.17;;
15716;SDS011;7960;50.908;4.204;2023-02-13T13:02:12;24.23;;;16.00;;
15716;SDS011;7960;50.908;4.204;2023-02-13T13:05:08;31.57;;;15.33;;
15716;SDS011;7960;50.908;4.204;2023-02-13T13:07:48;24.93;;;15.03;;
15716;SDS011;7960;50.908;4.204;2023-02-13T13:10:33;33.77;;;15.37;;
15716;SDS011;7960;50.908;4.204;2023-02-13T13:13:13;35.43;;;17.00;;
15716;SDS011;7960;50.908;4.204;2023-02-13T13:15:56;26.17;;;15.57;;
15716;SDS011;7960;50.908;4.204;2023-02-13T13:18:32;29.20;;;15.17;;
15716;SDS011;7960;50.908;4.204;2023-02-13T13:21:10;38.77;;;17.10;;
15716;SDS011;7960;50.908;4.204;2023-02-13T13:23:43;25.00;;;16.23;;
15716;SDS011;7960;50.908;4.204;2023-02-13T13:26:16;26.90;;;15.97;;
15716;SDS011;7960;50.908;4.204;2023-02-13T13:28:49;29.90;;;16.97;;
15716;SDS011;7960;50.908;4.204;2023-02-13T13:31:21;26.53;;;16.97;;
15716;SDS011;7960;50.908;4.204;2023-02-13T13:33:50;31.77;;;17.73;;
15716;SDS011;7960;50.908;4.204;2023-02-13T13:36:20;53.30;;;18.93;;
15716;SDS011;7960;50.908;4.204;2023-02-13T13:39:01;41.90;;;17.03;;
15716;SDS011;7960;50.908;4.204;2023-02-13T13:41:34;32.83;;;17.17;;
15716;SDS011;7960;50.908;4.204;2023-02-13T13:47:14;32.50;;;15.70;;
15716;SDS011;7960;50.908;4.204;2023-02-13T13:49:49;28.77;;;14.97;;
15716;SDS011;7960;50.908;4.204;2023-02-13T13:52:19;32.23;;;15.40;;
15716;SDS011;7960;50.908;4.204;2023-02-13T13:54:48;29.73;;;15.03;;
15716;SDS011;7960;50.908;4.204;2023-02-13T13:57:20;27.83;;;14.20;;
15716;SDS011;7960;50.908;4.204;2023-02-13T13:59:55;26.13;;;14.73;;
15716;SDS011;7960;50.908;4.204;2023-02-13T14:02:30;20.33;;;13.23;;
15716;SDS011;7960;50.908;4.204;2023-02-13T14:05:16;30.93;;;14.97;;
15716;SDS011;7960;50.908;4.204;2023-02-13T14:07:47;29.67;;;14.30;;
15716;SDS011;7960;50.908;4.204;2023-02-13T14:13:35;26.77;;;13.87;;
15716;SDS011;7960;50.908;4.204;2023-02-13T14:16:04;42.37;;;15.17;;
15716;SDS011;7960;50.908;4.204;2023-02-13T14:18:36;24.07;;;13.50;;
15716;SDS011;7960;50.908;4.204;2023-02-13T14:21:09;35.47;;;13.70;;
15716;SDS011;7960;50.908;4.204;2023-02-13T14:23:43;22.50;;;12.60;;
15716;SDS011;7960;50.908;4.204;2023-02-13T14:32:02;27.50;;;15.03;;
15716;SDS011;7960;50.908;4.204;2023-02-13T14:34:35;32.83;;;14.63;;
15716;SDS011;7960;50.908;4.204;2023-02-13T14:37:09;34.17;;;14.47;;
15716;SDS011;7960;50.908;4.204;2023-02-13T14:42:50;27.27;;;15.87;;
15716;SDS011;7960;50.908;4.204;2023-02-13T14:45:21;39.37;;;15.93;;
15716;SDS011;7960;50.908;4.204;2023-02-13T14:47:53;29.70;;;14.67;;
15716;SDS011;7960;50.908;4.204;2023-02-13T14:50:23;32.17;;;15.70;;
15716;SDS011;7960;50.908;4.204;2023-02-13T14:52:54;36.33;;;16.43;;
15716;SDS011;7960;50.908;4.204;2023-02-13T14:55:28;39.27;;;15.43;;
15716;SDS011;7960;50.908;4.204;2023-02-13T14:57:59;22.50;;;14.47;;
15716;SDS011;7960;50.908;4.204;2023-02-13T15:00:33;39.27;;;16.07;;
15716;SDS011;7960;50.908;4.204;2023-02-13T15:03:07;23.77;;;13.77;;
15716;SDS011;7960;50.908;4.204;2023-02-13T15:05:48;26.53;;;14.37;;
15716;SDS011;7960;50.908;4.204;2023-02-13T15:08:18;28.63;;;14.47;;
15716;SDS011;7960;50.908;4.204;2023-02-13T15:10:51;22.23;;;14.63;;
15716;SDS011;7960;50.908;4.204;2023-02-13T15:13:20;35.57;;;16.10;;
15716;SDS011;7960;50.908;4.204;2023-02-13T15:15:52;39.33;;;14.53;;
15716;SDS011;7960;50.908;4.204;2023-02-13T15:18:22;34.87;;;14.43;;
15716;SDS011;7960;50.908;4.204;2023-02-13T15:20:53;22.03;;;13.23;;
15716;SDS011;7960;50.908;4.204;2023-02-13T15:23:24;31.53;;;13.73;;
15716;SDS011;7960;50.908;4.204;2023-02-13T15:25:56;30.73;;;13.67;;
15716;SDS011;7960;50.908;4.204;2023-02-13T15:28:26;23.77;;;12.83;;